Frederick, Pennsylvania
Current Conditions -  °F | °C
As of 12:54 PM on Thursday 29 Jan 2015 (Local Time) from KPTW Reporting Station
Overcast Overcast  
Wind Chill: 30°   Ceiling: 11000
Heat Index: 30°   Visibility: 10mi
Dew Point:   Wind: 3mph
Humidity: 35%   Direction: NA
Pressure: 30.22"   Gusts: NA
Location:  40.33°N, 75.56°W
Report Text: KPTW 291754Z AUTO VRB03KT 10SM OVC110 M01/M15 A3022 RMK AO2 SLP234 T10111150 11011 21139 58029
Loading
Personal Weather Stations






























Interactive Weather Map New forecast layout! Learn more

10-Day Weather Forecast

Advertisements
Track Severe Weather on mobile